sensor_id;sensor_type;location;lat;lon;timestamp;pressure;altitude;pressure_sealevel;temperature;humidity
55517;BME280;41724;51.176;-0.708;2023-04-01T00:01:06;99439.89;;;10.92;89.32
55517;BME280;41724;51.176;-0.708;2023-04-01T00:03:34;99445.66;;;9.94;91.51
55517;BME280;41724;51.176;-0.708;2023-04-01T00:06:01;99453.26;;;10.66;90.61
55517;BME280;41724;51.176;-0.708;2023-04-01T00:08:29;99455.60;;;10.14;90.84
55517;BME280;41724;51.176;-0.708;2023-04-01T00:10:56;99458.68;;;10.79;89.39
55517;BME280;41724;51.176;-0.708;2023-04-01T00:13:24;99462.60;;;10.42;90.91
55517;BME280;41724;51.176;-0.708;2023-04-01T00:15:51;99467.05;;;10.43;92.19
55517;BME280;41724;51.176;-0.708;2023-04-01T00:18:18;99469.39;;;10.95;88.98
55517;BME280;41724;51.176;-0.708;2023-04-01T00:20:47;99471.25;;;10.35;89.95
55517;BME280;41724;51.176;-0.708;2023-04-01T00:23:15;99475.82;;;10.04;93.54
55517;BME280;41724;51.176;-0.708;2023-04-01T00:25:43;99474.37;;;11.01;89.31
55517;BME280;41724;51.176;-0.708;2023-04-01T00:28:10;99481.23;;;10.92;89.03
55517;BME280;41724;51.176;-0.708;2023-04-01T00:30:37;99479.01;;;10.95;89.30
55517;BME280;41724;51.176;-0.708;2023-04-01T00:33:06;99482.21;;;10.82;89.46
55517;BME280;41724;51.176;-0.708;2023-04-01T00:35:33;99484.55;;;11.41;86.57
55517;BME280;41724;51.176;-0.708;2023-04-01T00:38:01;99489.40;;;10.15;89.41
55517;BME280;41724;51.176;-0.708;2023-04-01T00:40:29;99492.74;;;10.27;91.24
55517;BME280;41724;51.176;-0.708;2023-04-01T00:42:57;99493.49;;;9.94;91.67
55517;BME280;41724;51.176;-0.708;2023-04-01T00:45:28;99498.98;;;10.23;90.80
55517;BME280;41724;51.176;-0.708;2023-04-01T00:47:56;99494.23;;;10.80;89.27
55517;BME280;41724;51.176;-0.708;2023-04-01T00:50:26;99501.39;;;10.37;90.58
55517;BME280;41724;51.176;-0.708;2023-04-01T00:52:54;99502.58;;;10.13;92.02
55517;BME280;41724;51.176;-0.708;2023-04-01T00:55:22;99505.98;;;10.44;90.00
55517;BME280;41724;51.176;-0.708;2023-04-01T00:57:51;99507.99;;;10.68;88.28
55517;BME280;41724;51.176;-0.708;2023-04-01T01:00:20;99504.67;;;11.22;86.89
55517;BME280;41724;51.176;-0.708;2023-04-01T01:02:49;99510.07;;;11.09;86.64
55517;BME280;41724;51.176;-0.708;2023-04-01T01:05:19;99514.49;;;10.17;90.09
55517;BME280;41724;51.176;-0.708;2023-04-01T01:07:59;99516.99;;;11.19;88.15
55517;BME280;41724;51.176;-0.708;2023-04-01T01:10:31;99523.36;;;10.98;85.54
55517;BME280;41724;51.176;-0.708;2023-04-01T01:13:04;99523.09;;;10.77;87.89
55517;BME280;41724;51.176;-0.708;2023-04-01T01:15:41;99522.81;;;10.84;87.37
55517;BME280;41724;51.176;-0.708;2023-04-01T01:18:19;99528.39;;;10.14;89.78
55517;BME280;41724;51.176;-0.708;2023-04-01T01:21:43;99526.90;;;10.82;88.48
55517;BME280;41724;51.176;-0.708;2023-04-01T01:24:27;99526.34;;;10.78;88.05
55517;BME280;41724;51.176;-0.708;2023-04-01T01:27:00;99531.41;;;10.85;87.41
55517;BME280;41724;51.176;-0.708;2023-04-01T01:29:40;99538.32;;;10.39;89.48
55517;BME280;41724;51.176;-0.708;2023-04-01T01:32:18;99536.05;;;10.86;87.14
55517;BME280;41724;51.176;-0.708;2023-04-01T01:34:54;99542.43;;;10.86;87.14
55517;BME280;41724;51.176;-0.708;2023-04-01T01:37:26;99546.83;;;10.23;90.08
55517;BME280;41724;51.176;-0.708;2023-04-01T01:39:59;99547.78;;;10.91;88.22
55517;BME280;41724;51.176;-0.708;2023-04-01T01:42:29;99549.54;;;10.73;87.62
55517;BME280;41724;51.176;-0.708;2023-04-01T01:44:59;99550.75;;;10.62;87.81
55517;BME280;41724;51.176;-0.708;2023-04-01T01:47:28;99552.73;;;10.75;87.81
55517;BME280;41724;51.176;-0.708;2023-04-01T01:49:56;99556.05;;;10.68;86.67
55517;BME280;41724;51.176;-0.708;2023-04-01T01:52:24;99559.96;;;11.11;87.89
55517;BME280;41724;51.176;-0.708;2023-04-01T01:54:55;99562.73;;;10.29;88.94
55517;BME280;41724;51.176;-0.708;2023-04-01T01:57:24;99564.73;;;10.97;86.25
55517;BME280;41724;51.176;-0.708;2023-04-01T01:59:55;99565.56;;;10.64;88.09
55517;BME280;41724;51.176;-0.708;2023-04-01T02:02:24;99568.38;;;11.40;85.41
55517;BME280;41724;51.176;-0.708;2023-04-01T02:04:52;99569.78;;;10.92;85.89
55517;BME280;41724;51.176;-0.708;2023-04-01T02:07:23;99574.72;;;10.81;87.12
55517;BME280;41724;51.176;-0.708;2023-04-01T02:09:52;99572.84;;;11.05;87.87
55517;BME280;41724;51.176;-0.708;2023-04-01T02:12:19;99574.95;;;11.38;85.36
55517;BME280;41724;51.176;-0.708;2023-04-01T02:14:55;99577.80;;;11.14;86.12
55517;BME280;41724;51.176;-0.708;2023-04-01T02:17:27;99582.67;;;11.14;85.46
55517;BME280;41724;51.176;-0.708;2023-04-01T02:19:58;99578.27;;;11.67;84.69
55517;BME280;41724;51.176;-0.708;2023-04-01T02:22:29;99579.82;;;11.03;86.74
55517;BME280;41724;51.176;-0.708;2023-04-01T02:24:59;99582.88;;;11.24;86.51
55517;BME280;41724;51.176;-0.708;2023-04-01T02:27:28;99586.51;;;11.36;85.27
55517;BME280;41724;51.176;-0.708;2023-04-01T02:29:57;99588.23;;;11.53;85.65
55517;BME280;41724;51.176;-0.708;2023-04-01T02:32:27;99590.51;;;11.85;84.37
55517;BME280;41724;51.176;-0.708;2023-04-01T02:34:55;99590.38;;;11.75;83.10
55517;BME280;41724;51.176;-0.708;2023-04-01T02:37:23;99595.19;;;11.38;84.20
55517;BME280;41724;51.176;-0.708;2023-04-01T02:39:50;99594.11;;;11.09;86.03
55517;BME280;41724;51.176;-0.708;2023-04-01T02:42:17;99593.22;;;11.41;85.82
55517;BME280;41724;51.176;-0.708;2023-04-01T02:44:45;99592.26;;;11.18;86.13
55517;BME280;41724;51.176;-0.708;2023-04-01T02:47:12;99595.69;;;11.79;84.54
55517;BME280;41724;51.176;-0.708;2023-04-01T02:49:39;99593.43;;;11.43;85.14
55517;BME280;41724;51.176;-0.708;2023-04-01T02:52:06;99594.06;;;11.24;86.57
55517;BME280;41724;51.176;-0.708;2023-04-01T02:54:33;99597.68;;;11.65;85.21
55517;BME280;41724;51.176;-0.708;2023-04-01T02:57:00;99596.99;;;11.83;84.57
55517;BME280;41724;51.176;-0.708;2023-04-01T02:59:27;99595.37;;;11.84;83.34
55517;BME280;41724;51.176;-0.708;2023-04-01T03:01:54;99600.00;;;11.21;84.49
55517;BME280;41724;51.176;-0.708;2023-04-01T03:04:21;99600.35;;;11.92;82.98
55517;BME280;41724;51.176;-0.708;2023-04-01T03:06:48;99602.30;;;11.96;82.57
55517;BME280;41724;51.176;-0.708;2023-04-01T03:09:15;99605.25;;;12.10;82.71
55517;BME280;41724;51.176;-0.708;2023-04-01T03:11:42;99605.14;;;12.07;82.77
55517;BME280;41724;51.176;-0.708;2023-04-01T03:14:10;99607.56;;;12.33;81.64
55517;BME280;41724;51.176;-0.708;2023-04-01T03:16:37;99610.49;;;12.28;82.42
55517;BME280;41724;51.176;-0.708;2023-04-01T03:19:04;99610.85;;;12.35;82.04
55517;BME280;41724;51.176;-0.708;2023-04-01T03:21:31;99613.94;;;12.22;81.08
55517;BME280;41724;51.176;-0.708;2023-04-01T03:23:58;99617.54;;;12.07;82.33
55517;BME280;41724;51.176;-0.708;2023-04-01T03:26:25;99616.24;;;12.44;81.58
55517;BME280;41724;51.176;-0.708;2023-04-01T03:28:53;99613.28;;;12.16;81.23
55517;BME280;41724;51.176;-0.708;2023-04-01T03:31:19;99616.72;;;12.11;81.97
55517;BME280;41724;51.176;-0.708;2023-04-01T03:33:47;99619.92;;;12.22;82.03
55517;BME280;41724;51.176;-0.708;2023-04-01T03:36:14;99617.56;;;11.59;83.19
55517;BME280;41724;51.176;-0.708;2023-04-01T03:38:41;99620.95;;;12.08;82.01
55517;BME280;41724;51.176;-0.708;2023-04-01T03:41:13;99619.42;;;12.03;83.82
55517;BME280;41724;51.176;-0.708;2023-04-01T03:43:41;99619.78;;;10.98;85.08
55517;BME280;41724;51.176;-0.708;2023-04-01T03:46:09;99621.99;;;11.33;84.44
55517;BME280;41724;51.176;-0.708;2023-04-01T03:48:37;99621.94;;;12.04;83.70
55517;BME280;41724;51.176;-0.708;2023-04-01T03:51:08;99621.51;;;12.21;83.71
55517;BME280;41724;51.176;-0.708;2023-04-01T03:53:35;99626.90;;;11.69;83.66
55517;BME280;41724;51.176;-0.708;2023-04-01T03:56:04;99627.80;;;11.61;83.57
55517;BME280;41724;51.176;-0.708;2023-04-01T03:58:31;99628.56;;;12.14;82.64
55517;BME280;41724;51.176;-0.708;2023-04-01T04:00:58;99631.71;;;12.20;82.63
55517;BME280;41724;51.176;-0.708;2023-04-01T04:03:25;99630.38;;;12.39;81.19
55517;BME280;41724;51.176;-0.708;2023-04-01T04:05:52;99633.44;;;12.41;80.26
55517;BME280;41724;51.176;-0.708;2023-04-01T04:08:19;99639.93;;;12.36;80.15
55517;BME280;41724;51.176;-0.708;2023-04-01T04:10:46;99641.34;;;11.85;83.17
55517;BME280;41724;51.176;-0.708;2023-04-01T04:13:13;99641.95;;;12.28;82.98
55517;BME280;41724;51.176;-0.708;2023-04-01T04:15:40;99644.09;;;12.09;81.60
55517;BME280;41724;51.176;-0.708;2023-04-01T04:18:07;99644.97;;;11.30;84.60
55517;BME280;41724;51.176;-0.708;2023-04-01T04:20:34;99645.14;;;12.14;83.26
55517;BME280;41724;51.176;-0.708;2023-04-01T04:23:01;99651.20;;;12.34;81.40
55517;BME280;41724;51.176;-0.708;2023-04-01T04:25:28;99651.34;;;11.91;82.02
55517;BME280;41724;51.176;-0.708;2023-04-01T04:27:55;99652.71;;;12.37;81.08
55517;BME280;41724;51.176;-0.708;2023-04-01T04:30:22;99658.51;;;12.63;80.97
55517;BME280;41724;51.176;-0.708;2023-04-01T04:32:49;99665.03;;;12.86;79.46
55517;BME280;41724;51.176;-0.708;2023-04-01T04:35:17;99661.50;;;12.45;80.65
55517;BME280;41724;51.176;-0.708;2023-04-01T04:37:44;99665.45;;;12.19;81.23
55517;BME280;41724;51.176;-0.708;2023-04-01T04:40:11;99671.34;;;12.22;80.83
55517;BME280;41724;51.176;-0.708;2023-04-01T04:42:38;99674.81;;;12.15;81.23
55517;BME280;41724;51.176;-0.708;2023-04-01T04:45:06;99680.76;;;11.69;82.32
55517;BME280;41724;51.176;-0.708;2023-04-01T04:47:33;99678.88;;;11.95;82.41
55517;BME280;41724;51.176;-0.708;2023-04-01T04:50:00;99682.37;;;11.86;83.38
55517;BME280;41724;51.176;-0.708;2023-04-01T04:52:27;99682.68;;;11.32;84.43
55517;BME280;41724;51.176;-0.708;2023-04-01T04:54:54;99687.81;;;11.69;83.41
55517;BME280;41724;51.176;-0.708;2023-04-01T04:57:21;99690.07;;;11.75;82.88
55517;BME280;41724;51.176;-0.708;2023-04-01T04:59:48;99693.01;;;12.00;81.74
55517;BME280;41724;51.176;-0.708;2023-04-01T05:02:15;99697.31;;;12.10;80.92
55517;BME280;41724;51.176;-0.708;2023-04-01T05:04:42;99695.85;;;12.51;81.20
55517;BME280;41724;51.176;-0.708;2023-04-01T05:07:09;99701.43;;;12.46;79.71
55517;BME280;41724;51.176;-0.708;2023-04-01T05:09:36;99705.01;;;12.12;79.57
55517;BME280;41724;51.176;-0.708;2023-04-01T05:12:03;99707.64;;;12.61;79.65
55517;BME280;41724;51.176;-0.708;2023-04-01T05:14:30;99708.64;;;12.67;78.89
55517;BME280;41724;51.176;-0.708;2023-04-01T05:16:57;99713.68;;;12.83;78.68
55517;BME280;41724;51.176;-0.708;2023-04-01T05:19:24;99715.07;;;12.71;78.28
55517;BME280;41724;51.176;-0.708;2023-04-01T05:21:51;99715.89;;;12.89;78.33
55517;BME280;41724;51.176;-0.708;2023-04-01T05:24:18;99719.86;;;12.85;77.80
55517;BME280;41724;51.176;-0.708;2023-04-01T05:26:45;99721.04;;;12.86;77.27
55517;BME280;41724;51.176;-0.708;2023-04-01T05:29:12;99727.36;;;12.84;77.60
55517;BME280;41724;51.176;-0.708;2023-04-01T05:31:39;99724.48;;;12.42;78.58
55517;BME280;41724;51.176;-0.708;2023-04-01T05:34:08;99729.13;;;12.97;76.84
55517;BME280;41724;51.176;-0.708;2023-04-01T05:36:35;99733.32;;;12.68;77.35
55517;BME280;41724;51.176;-0.708;2023-04-01T05:39:02;99734.17;;;12.83;76.94
55517;BME280;41724;51.176;-0.708;2023-04-01T05:41:29;99736.89;;;13.01;76.76
55517;BME280;41724;51.176;-0.708;2023-04-01T05:43:56;99741.53;;;13.08;76.87
55517;BME280;41724;51.176;-0.708;2023-04-01T05:46:23;99747.02;;;13.32;76.41
55517;BME280;41724;51.176;-0.708;2023-04-01T05:48:50;99749.09;;;12.73;76.74
55517;BME280;41724;51.176;-0.708;2023-04-01T05:51:18;99753.09;;;12.93;77.21
55517;BME280;41724;51.176;-0.708;2023-04-01T05:53:45;99756.40;;;12.94;77.13
55517;BME280;41724;51.176;-0.708;2023-04-01T05:56:12;99762.11;;;12.42;77.37
55517;BME280;41724;51.176;-0.708;2023-04-01T05:58:39;99767.86;;;12.74;77.86
55517;BME280;41724;51.176;-0.708;2023-04-01T06:01:07;99772.01;;;12.83;77.04
55517;BME280;41724;51.176;-0.708;2023-04-01T06:03:36;99771.24;;;12.47;76.45
55517;BME280;41724;51.176;-0.708;2023-04-01T06:06:03;99769.17;;;12.75;76.97
55517;BME280;41724;51.176;-0.708;2023-04-01T06:08:31;99771.20;;;12.90;76.67
55517;BME280;41724;51.176;-0.708;2023-04-01T06:11:10;99769.82;;;12.47;75.72
55517;BME280;41724;51.176;-0.708;2023-04-01T06:13:56;99772.92;;;12.96;75.80
55517;BME280;41724;51.176;-0.708;2023-04-01T06:16:35;99776.70;;;12.49;75.85
55517;BME280;41724;51.176;-0.708;2023-04-01T06:19:16;99782.41;;;12.60;76.08
55517;BME280;41724;51.176;-0.708;2023-04-01T06:22:14;99784.36;;;12.70;76.92
55517;BME280;41724;51.176;-0.708;2023-04-01T06:25:16;99789.96;;;13.16;76.08
55517;BME280;41724;51.176;-0.708;2023-04-01T06:28:00;99793.28;;;12.95;74.51
55517;BME280;41724;51.176;-0.708;2023-04-01T06:30:35;99798.37;;;12.71;75.70
55517;BME280;41724;51.176;-0.708;2023-04-01T06:33:18;99798.53;;;13.02;75.44
55517;BME280;41724;51.176;-0.708;2023-04-01T06:36:02;99803.31;;;12.87;76.61
55517;BME280;41724;51.176;-0.708;2023-04-01T06:38:44;99804.19;;;12.97;76.56
55517;BME280;41724;51.176;-0.708;2023-04-01T06:42:35;99806.50;;;12.91;76.03
55517;BME280;41724;51.176;-0.708;2023-04-01T06:45:17;99807.91;;;12.42;76.53
55517;BME280;41724;51.176;-0.708;2023-04-01T06:47:59;99812.46;;;12.48;76.46
55517;BME280;41724;51.176;-0.708;2023-04-01T06:50:34;99815.86;;;12.96;76.70
55517;BME280;41724;51.176;-0.708;2023-04-01T06:53:11;99821.35;;;12.68;75.61
55517;BME280;41724;51.176;-0.708;2023-04-01T06:55:41;99821.56;;;12.78;76.09
55517;BME280;41724;51.176;-0.708;2023-04-01T06:58:18;99825.74;;;12.84;76.74
55517;BME280;41724;51.176;-0.708;2023-04-01T07:00:48;99826.53;;;12.81;76.24
55517;BME280;41724;51.176;-0.708;2023-04-01T07:03:22;99827.59;;;12.49;77.34
55517;BME280;41724;51.176;-0.708;2023-04-01T07:05:50;99831.04;;;12.69;76.79
55517;BME280;41724;51.176;-0.708;2023-04-01T07:08:22;99838.87;;;12.13;76.77
55517;BME280;41724;51.176;-0.708;2023-04-01T07:10:56;99839.19;;;12.71;75.41
55517;BME280;41724;51.176;-0.708;2023-04-01T07:13:31;99847.03;;;12.99;75.62
55517;BME280;41724;51.176;-0.708;2023-04-01T07:16:08;99848.87;;;12.68;76.00
55517;BME280;41724;51.176;-0.708;2023-04-01T07:18:42;99853.54;;;13.30;74.77
55517;BME280;41724;51.176;-0.708;2023-04-01T07:21:22;99855.21;;;13.05;73.48
55517;BME280;41724;51.176;-0.708;2023-04-01T07:23:50;99859.63;;;12.88;74.01
55517;BME280;41724;51.176;-0.708;2023-04-01T07:26:22;99862.90;;;13.02;73.24
55517;BME280;41724;51.176;-0.708;2023-04-01T07:28:52;99869.49;;;12.80;72.59
55517;BME280;41724;51.176;-0.708;2023-04-01T07:31:30;99868.99;;;12.51;72.33
55517;BME280;41724;51.176;-0.708;2023-04-01T07:34:06;99878.57;;;12.74;74.06
55517;BME280;41724;51.176;-0.708;2023-04-01T07:36:40;99882.42;;;11.29;75.69
55517;BME280;41724;51.176;-0.708;2023-04-01T07:39:23;99882.01;;;12.14;75.46
55517;BME280;41724;51.176;-0.708;2023-04-01T07:42:00;99886.26;;;12.86;74.31
55517;BME280;41724;51.176;-0.708;2023-04-01T07:44:37;99888.92;;;12.73;73.56
55517;BME280;41724;51.176;-0.708;2023-04-01T07:47:23;99892.10;;;12.55;74.26
55517;BME280;41724;51.176;-0.708;2023-04-01T07:50:03;99895.73;;;12.74;73.87
55517;BME280;41724;51.176;-0.708;2023-04-01T07:52:40;99900.53;;;12.96;73.85
55517;BME280;41724;51.176;-0.708;2023-04-01T07:55:16;99903.40;;;12.83;74.07
55517;BME280;41724;51.176;-0.708;2023-04-01T07:57:52;99906.17;;;12.88;73.38
55517;BME280;41724;51.176;-0.708;2023-04-01T08:00:30;99912.00;;;12.87;73.09
55517;BME280;41724;51.176;-0.708;2023-04-01T08:03:15;99914.04;;;12.88;73.43
55517;BME280;41724;51.176;-0.708;2023-04-01T08:05:53;99915.79;;;12.88;72.72
55517;BME280;41724;51.176;-0.708;2023-04-01T08:08:32;99919.20;;;13.35;71.37
55517;BME280;41724;51.176;-0.708;2023-04-01T08:11:11;99922.19;;;13.05;71.40
55517;BME280;41724;51.176;-0.708;2023-04-01T08:13:45;99923.95;;;13.55;71.59
55517;BME280;41724;51.176;-0.708;2023-04-01T08:16:20;99927.49;;;13.21;71.16
55517;BME280;41724;51.176;-0.708;2023-04-01T08:18:56;99929.20;;;13.56;70.54
55517;BME280;41724;51.176;-0.708;2023-04-01T08:21:29;99932.55;;;13.66;71.23
55517;BME280;41724;51.176;-0.708;2023-04-01T08:24:07;99937.43;;;13.45;70.74
55517;BME280;41724;51.176;-0.708;2023-04-01T08:26:44;99944.14;;;13.59;69.40
55517;BME280;41724;51.176;-0.708;2023-04-01T08:29:16;99946.35;;;13.53;69.29
55517;BME280;41724;51.176;-0.708;2023-04-01T08:31:51;99954.76;;;13.70;70.30
55517;BME280;41724;51.176;-0.708;2023-04-01T08:34:25;99955.78;;;13.45;71.19
55517;BME280;41724;51.176;-0.708;2023-04-01T08:36:58;99957.62;;;13.82;71.86
55517;BME280;41724;51.176;-0.708;2023-04-01T08:39:30;99960.80;;;13.96;71.29
55517;BME280;41724;51.176;-0.708;2023-04-01T08:42:18;99963.73;;;14.01;69.97
55517;BME280;41724;51.176;-0.708;2023-04-01T08:45:07;99963.13;;;13.86;70.62
55517;BME280;41724;51.176;-0.708;2023-04-01T08:48:00;99964.25;;;13.98;70.72
55517;BME280;41724;51.176;-0.708;2023-04-01T08:50:44;99970.16;;;14.07;70.43
55517;BME280;41724;51.176;-0.708;2023-04-01T08:53:26;99973.08;;;14.03;69.07
55517;BME280;41724;51.176;-0.708;2023-04-01T08:56:12;99973.57;;;14.37;69.86
55517;BME280;41724;51.176;-0.708;2023-04-01T08:59:07;99976.20;;;14.51;68.73
55517;BME280;41724;51.176;-0.708;2023-04-01T09:01:55;99974.11;;;14.98;68.52
55517;BME280;41724;51.176;-0.708;2023-04-01T09:04:37;99977.16;;;14.61;69.06
55517;BME280;41724;51.176;-0.708;2023-04-01T09:07:18;99978.75;;;15.19;68.92
55517;BME280;41724;51.176;-0.708;2023-04-01T09:10:08;99977.97;;;14.90;68.92
55517;BME280;41724;51.176;-0.708;2023-04-01T09:13:05;99983.01;;;15.29;69.02
55517;BME280;41724;51.176;-0.708;2023-04-01T09:15:57;99985.32;;;15.06;66.93
55517;BME280;41724;51.176;-0.708;2023-04-01T09:18:50;99991.22;;;14.92;66.70
55517;BME280;41724;51.176;-0.708;2023-04-01T09:21:39;99996.24;;;15.01;66.90
55517;BME280;41724;51.176;-0.708;2023-04-01T09:24:55;99997.65;;;14.95;66.78
55517;BME280;41724;51.176;-0.708;2023-04-01T09:27:28;99998.73;;;15.07;67.41
55517;BME280;41724;51.176;-0.708;2023-04-01T09:30:17;100002.80;;;15.15;66.25
55517;BME280;41724;51.176;-0.708;2023-04-01T09:33:03;100003.78;;;15.15;67.07
55517;BME280;41724;51.176;-0.708;2023-04-01T09:35:42;100004.20;;;15.06;65.65
55517;BME280;41724;51.176;-0.708;2023-04-01T09:38:21;100005.03;;;14.92;66.14
55517;BME280;41724;51.176;-0.708;2023-04-01T09:40:55;100010.98;;;15.07;65.37
55517;BME280;41724;51.176;-0.708;2023-04-01T09:43:26;100011.75;;;14.85;65.75
55517;BME280;41724;51.176;-0.708;2023-04-01T09:46:09;100014.25;;;14.78;67.50
55517;BME280;41724;51.176;-0.708;2023-04-01T09:49:26;100021.32;;;14.70;66.46
55517;BME280;41724;51.176;-0.708;2023-04-01T09:52:14;100022.60;;;14.60;67.49
55517;BME280;41724;51.176;-0.708;2023-04-01T09:55:00;100026.72;;;14.45;67.36
55517;BME280;41724;51.176;-0.708;2023-04-01T09:57:52;100027.23;;;14.92;66.47
55517;BME280;41724;51.176;-0.708;2023-04-01T10:00:49;100032.25;;;15.15;66.53
55517;BME280;41724;51.176;-0.708;2023-04-01T10:05:59;100050.14;;;15.21;67.45
55517;BME280;41724;51.176;-0.708;2023-04-01T10:09:23;100051.96;;;14.48;65.78
55517;BME280;41724;51.176;-0.708;2023-04-01T10:12:16;100059.38;;;14.25;66.51
55517;BME280;41724;51.176;-0.708;2023-04-01T10:16:03;100063.25;;;14.34;67.83
55517;BME280;41724;51.176;-0.708;2023-04-01T10:18:57;100066.19;;;13.89;66.90
55517;BME280;41724;51.176;-0.708;2023-04-01T10:21:51;100073.31;;;14.16;67.20
55517;BME280;41724;51.176;-0.708;2023-04-01T10:24:47;100073.77;;;13.98;67.74
55517;BME280;41724;51.176;-0.708;2023-04-01T10:27:50;100086.93;;;14.32;68.89
55517;BME280;41724;51.176;-0.708;2023-04-01T10:30:48;100085.86;;;14.00;69.00
55517;BME280;41724;51.176;-0.708;2023-04-01T10:33:49;100089.05;;;13.72;68.48
55517;BME280;41724;51.176;-0.708;2023-04-01T10:36:52;100093.46;;;13.90;67.89
55517;BME280;41724;51.176;-0.708;2023-04-01T10:40:23;100101.41;;;14.04;67.55
55517;BME280;41724;51.176;-0.708;2023-04-01T10:45:55;100108.19;;;14.33;67.97
55517;BME280;41724;51.176;-0.708;2023-04-01T10:49:22;100109.38;;;13.81;68.92
55517;BME280;41724;51.176;-0.708;2023-04-01T10:52:40;100121.90;;;13.84;68.14
55517;BME280;41724;51.176;-0.708;2023-04-01T10:55:30;100120.73;;;14.05;68.84
55517;BME280;41724;51.176;-0.708;2023-04-01T10:58:30;100123.77;;;14.52;68.10
55517;BME280;41724;51.176;-0.708;2023-04-01T11:02:01;100122.23;;;14.16;66.02
55517;BME280;41724;51.176;-0.708;2023-04-01T11:05:17;100125.38;;;15.05;65.90
55517;BME280;41724;51.176;-0.708;2023-04-01T11:08:11;100118.66;;;15.38;64.13
55517;BME280;41724;51.176;-0.708;2023-04-01T11:11:44;100122.87;;;15.82;60.65
55517;BME280;41724;51.176;-0.708;2023-04-01T11:14:40;100126.39;;;15.77;59.71
55517;BME280;41724;51.176;-0.708;2023-04-01T11:17:52;100132.82;;;15.01;61.70
55517;BME280;41724;51.176;-0.708;2023-04-01T11:22:55;100137.63;;;15.83;63.42
55517;BME280;41724;51.176;-0.708;2023-04-01T11:25:44;100142.60;;;15.35;62.65
55517;BME280;41724;51.176;-0.708;2023-04-01T11:28:35;100142.29;;;15.44;61.99
55517;BME280;41724;51.176;-0.708;2023-04-01T11:31:26;100143.03;;;15.21;63.66
55517;BME280;41724;51.176;-0.708;2023-04-01T11:34:11;100147.88;;;15.81;63.31
55517;BME280;41724;51.176;-0.708;2023-04-01T11:36:50;100151.49;;;15.75;62.38
55517;BME280;41724;51.176;-0.708;2023-04-01T11:39:30;100155.73;;;16.15;63.64
55517;BME280;41724;51.176;-0.708;2023-04-01T11:42:13;100161.03;;;16.01;61.49
55517;BME280;41724;51.176;-0.708;2023-04-01T11:44:55;100164.67;;;16.25;61.68
55517;BME280;41724;51.176;-0.708;2023-04-01T11:47:41;100168.47;;;16.37;60.51
55517;BME280;41724;51.176;-0.708;2023-04-01T11:50:21;100173.70;;;16.24;60.83
55517;BME280;41724;51.176;-0.708;2023-04-01T11:53:03;100178.49;;;16.54;60.32
55517;BME280;41724;51.176;-0.708;2023-04-01T11:55:45;100178.99;;;16.07;60.78
55517;BME280;41724;51.176;-0.708;2023-04-01T11:58:31;100184.03;;;15.48;58.85
55517;BME280;41724;51.176;-0.708;2023-04-01T12:01:18;100190.52;;;14.48;61.26
55517;BME280;41724;51.176;-0.708;2023-04-01T12:04:04;100196.49;;;14.70;60.89
55517;BME280;41724;51.176;-0.708;2023-04-01T12:06:41;100198.57;;;14.39;64.26
55517;BME280;41724;51.176;-0.708;2023-04-01T12:09:19;100205.18;;;14.72;65.49
55517;BME280;41724;51.176;-0.708;2023-04-01T12:11:57;100206.93;;;15.00;65.87
55517;BME280;41724;51.176;-0.708;2023-04-01T12:14:36;100205.59;;;15.42;63.45
55517;BME280;41724;51.176;-0.708;2023-04-01T12:17:11;100213.88;;;13.43;63.50
55517;BME280;41724;51.176;-0.708;2023-04-01T12:19:56;100217.42;;;14.35;62.85
55517;BME280;41724;51.176;-0.708;2023-04-01T12:22:36;100215.60;;;15.33;61.99
55517;BME280;41724;51.176;-0.708;2023-04-01T12:27:32;100216.40;;;16.85;62.20
55517;BME280;41724;51.176;-0.708;2023-04-01T12:31:23;100223.30;;;15.71;60.97
55517;BME280;41724;51.176;-0.708;2023-04-01T12:36:30;100230.16;;;16.53;59.43
55517;BME280;41724;51.176;-0.708;2023-04-01T12:39:25;100234.91;;;16.03;54.89
55517;BME280;41724;51.176;-0.708;2023-04-01T12:42:04;100236.33;;;17.09;58.96
55517;BME280;41724;51.176;-0.708;2023-04-01T12:44:50;100241.16;;;17.83;54.71
55517;BME280;41724;51.176;-0.708;2023-04-01T12:47:39;100243.00;;;17.34;56.60
55517;BME280;41724;51.176;-0.708;2023-04-01T12:50:30;100246.02;;;16.82;57.23
55517;BME280;41724;51.176;-0.708;2023-04-01T12:53:13;100246.85;;;16.54;56.59
55517;BME280;41724;51.176;-0.708;2023-04-01T12:55:48;100255.14;;;16.32;58.38
55517;BME280;41724;51.176;-0.708;2023-04-01T12:58:54;100257.70;;;16.44;58.01
55517;BME280;41724;51.176;-0.708;2023-04-01T13:01:54;100263.85;;;16.94;58.91
55517;BME280;41724;51.176;-0.708;2023-04-01T13:05:15;100266.07;;;16.81;56.30
55517;BME280;41724;51.176;-0.708;2023-04-01T13:08:00;100272.83;;;16.39;58.70
55517;BME280;41724;51.176;-0.708;2023-04-01T13:10:44;100277.61;;;16.84;56.86
55517;BME280;41724;51.176;-0.708;2023-04-01T13:13:32;100276.13;;;16.60;56.91
55517;BME280;41724;51.176;-0.708;2023-04-01T13:16:10;100282.02;;;15.95;55.63
55517;BME280;41724;51.176;-0.708;2023-04-01T13:18:43;100290.87;;;15.44;56.90
55517;BME280;41724;51.176;-0.708;2023-04-01T13:21:28;100289.45;;;15.19;57.84
55517;BME280;41724;51.176;-0.708;2023-04-01T13:24:06;100294.98;;;16.36;57.75
55517;BME280;41724;51.176;-0.708;2023-04-01T13:26:44;100298.97;;;15.61;57.17
55517;BME280;41724;51.176;-0.708;2023-04-01T13:29:23;100307.36;;;15.74;57.37
55517;BME280;41724;51.176;-0.708;2023-04-01T13:32:09;100311.76;;;15.87;57.60
55517;BME280;41724;51.176;-0.708;2023-04-01T13:34:55;100308.90;;;16.26;57.12
55517;BME280;41724;51.176;-0.708;2023-04-01T13:37:40;100317.32;;;16.44;57.58
55517;BME280;41724;51.176;-0.708;2023-04-01T13:40:25;100321.44;;;16.06;55.60
55517;BME280;41724;51.176;-0.708;2023-04-01T13:43:01;100325.88;;;15.85;55.72
55517;BME280;41724;51.176;-0.708;2023-04-01T13:45:35;100327.60;;;16.17;55.61
55517;BME280;41724;51.176;-0.708;2023-04-01T13:48:35;100331.21;;;15.47;56.22
55517;BME280;41724;51.176;-0.708;2023-04-01T13:51:24;100340.61;;;14.33;57.64
55517;BME280;41724;51.176;-0.708;2023-04-01T13:54:11;100345.93;;;14.88;58.94
55517;BME280;41724;51.176;-0.708;2023-04-01T13:56:50;100350.51;;;13.99;57.73